sensor_id;sensor_type;location;lat;lon;timestamp;P1;durP1;ratioP1;P2;durP2;ratioP2
46931;SDS011;32670;51.464;11.964;2024-03-02T00:00:22;4.30;;;3.87;;
46931;SDS011;32670;51.464;11.964;2024-03-02T00:02:49;3.90;;;3.60;;
46931;SDS011;32670;51.464;11.964;2024-03-02T00:05:15;4.17;;;3.80;;
46931;SDS011;32670;51.464;11.964;2024-03-02T00:07:43;4.77;;;3.73;;
46931;SDS011;32670;51.464;11.964;2024-03-02T00:10:10;6.27;;;3.90;;
46931;SDS011;32670;51.464;11.964;2024-03-02T00:12:37;4.43;;;4.10;;
46931;SDS011;32670;51.464;11.964;2024-03-02T00:15:06;4.40;;;3.53;;
46931;SDS011;32670;51.464;11.964;2024-03-02T00:18:07;3.97;;;3.50;;
46931;SDS011;32670;51.464;11.964;2024-03-02T00:20:35;5.80;;;3.70;;
46931;SDS011;32670;51.464;11.964;2024-03-02T00:23:04;4.00;;;3.40;;
46931;SDS011;32670;51.464;11.964;2024-03-02T00:25:35;3.80;;;3.50;;
46931;SDS011;32670;51.464;11.964;2024-03-02T00:28:03;5.00;;;3.60;;
46931;SDS011;32670;51.464;11.964;2024-03-02T00:33:27;6.13;;;3.70;;
46931;SDS011;32670;51.464;11.964;2024-03-02T00:35:56;5.57;;;3.77;;
46931;SDS011;32670;51.464;11.964;2024-03-02T00:38:22;5.07;;;3.83;;
46931;SDS011;32670;51.464;11.964;2024-03-02T00:40:47;7.90;;;3.97;;
46931;SDS011;32670;51.464;11.964;2024-03-02T00:43:29;7.47;;;3.90;;
46931;SDS011;32670;51.464;11.964;2024-03-02T00:46:30;4.60;;;3.60;;
46931;SDS011;32670;51.464;11.964;2024-03-02T00:48:59;5.33;;;3.80;;
46931;SDS011;32670;51.464;11.964;2024-03-02T00:51:26;4.90;;;3.90;;
46931;SDS011;32670;51.464;11.964;2024-03-02T00:53:54;6.03;;;3.90;;
46931;SDS011;32670;51.464;11.964;2024-03-02T00:56:21;5.67;;;3.50;;
46931;SDS011;32670;51.464;11.964;2024-03-02T00:58:47;5.37;;;3.83;;
46931;SDS011;32670;51.464;11.964;2024-03-02T01:01:13;6.97;;;3.60;;
46931;SDS011;32670;51.464;11.964;2024-03-02T01:03:39;4.73;;;3.50;;
46931;SDS011;32670;51.464;11.964;2024-03-02T01:06:06;6.47;;;3.40;;
46931;SDS011;32670;51.464;11.964;2024-03-02T01:08:32;7.90;;;3.83;;
46931;SDS011;32670;51.464;11.964;2024-03-02T01:10:58;9.00;;;3.77;;
46931;SDS011;32670;51.464;11.964;2024-03-02T01:13:23;6.23;;;4.10;;
46931;SDS011;32670;51.464;11.964;2024-03-02T01:15:49;4.93;;;3.67;;
46931;SDS011;32670;51.464;11.964;2024-03-02T01:18:15;4.10;;;3.70;;
46931;SDS011;32670;51.464;11.964;2024-03-02T01:20:41;6.47;;;3.60;;
46931;SDS011;32670;51.464;11.964;2024-03-02T01:23:06;4.97;;;3.70;;
46931;SDS011;32670;51.464;11.964;2024-03-02T01:25:32;5.87;;;4.43;;
46931;SDS011;32670;51.464;11.964;2024-03-02T01:27:57;4.37;;;3.80;;
46931;SDS011;32670;51.464;11.964;2024-03-02T01:30:23;8.23;;;3.73;;
46931;SDS011;32670;51.464;11.964;2024-03-02T01:32:48;6.40;;;3.70;;
46931;SDS011;32670;51.464;11.964;2024-03-02T01:35:13;3.67;;;3.37;;
46931;SDS011;32670;51.464;11.964;2024-03-02T01:37:40;5.03;;;3.70;;
46931;SDS011;32670;51.464;11.964;2024-03-02T01:40:05;5.23;;;3.57;;
46931;SDS011;32670;51.464;11.964;2024-03-02T01:42:34;5.70;;;3.63;;
46931;SDS011;32670;51.464;11.964;2024-03-02T01:45:01;9.23;;;3.73;;
46931;SDS011;32670;51.464;11.964;2024-03-02T01:47:27;4.77;;;3.37;;
46931;SDS011;32670;51.464;11.964;2024-03-02T01:49:52;4.60;;;3.37;;
46931;SDS011;32670;51.464;11.964;2024-03-02T01:52:18;7.63;;;3.60;;
46931;SDS011;32670;51.464;11.964;2024-03-02T01:54:43;4.13;;;3.70;;
46931;SDS011;32670;51.464;11.964;2024-03-02T01:57:09;3.63;;;3.33;;
46931;SDS011;32670;51.464;11.964;2024-03-02T01:59:35;4.33;;;3.40;;
46931;SDS011;32670;51.464;11.964;2024-03-02T02:02:00;4.23;;;3.57;;
46931;SDS011;32670;51.464;11.964;2024-03-02T02:04:26;5.80;;;4.10;;
46931;SDS011;32670;51.464;11.964;2024-03-02T02:06:52;3.97;;;3.60;;
46931;SDS011;32670;51.464;11.964;2024-03-02T02:09:18;5.43;;;3.47;;
46931;SDS011;32670;51.464;11.964;2024-03-02T02:11:44;5.40;;;3.37;;
46931;SDS011;32670;51.464;11.964;2024-03-02T02:14:09;4.00;;;3.60;;
46931;SDS011;32670;51.464;11.964;2024-03-02T02:16:36;7.33;;;3.60;;
46931;SDS011;32670;51.464;11.964;2024-03-02T02:19:01;6.43;;;3.33;;
46931;SDS011;32670;51.464;11.964;2024-03-02T02:21:28;4.73;;;3.50;;
46931;SDS011;32670;51.464;11.964;2024-03-02T02:23:53;6.17;;;3.13;;
46931;SDS011;32670;51.464;11.964;2024-03-02T02:26:18;3.83;;;3.43;;
46931;SDS011;32670;51.464;11.964;2024-03-02T02:28:44;3.63;;;3.33;;
46931;SDS011;32670;51.464;11.964;2024-03-02T02:31:15;3.60;;;3.30;;
46931;SDS011;32670;51.464;11.964;2024-03-02T02:33:41;6.33;;;3.23;;
46931;SDS011;32670;51.464;11.964;2024-03-02T02:36:07;4.00;;;3.67;;
46931;SDS011;32670;51.464;11.964;2024-03-02T02:38:32;4.33;;;3.30;;
46931;SDS011;32670;51.464;11.964;2024-03-02T02:41:01;5.77;;;3.50;;
46931;SDS011;32670;51.464;11.964;2024-03-02T02:43:27;5.47;;;3.20;;
46931;SDS011;32670;51.464;11.964;2024-03-02T02:45:53;5.87;;;3.03;;
46931;SDS011;32670;51.464;11.964;2024-03-02T02:48:18;3.87;;;2.80;;
46931;SDS011;32670;51.464;11.964;2024-03-02T02:50:44;4.87;;;3.50;;
46931;SDS011;32670;51.464;11.964;2024-03-02T02:53:09;4.30;;;3.07;;
46931;SDS011;32670;51.464;11.964;2024-03-02T02:55:35;4.03;;;3.40;;
46931;SDS011;32670;51.464;11.964;2024-03-02T02:58:05;3.37;;;3.07;;
46931;SDS011;32670;51.464;11.964;2024-03-02T03:00:31;4.03;;;3.30;;
46931;SDS011;32670;51.464;11.964;2024-03-02T03:02:56;4.13;;;3.17;;
46931;SDS011;32670;51.464;11.964;2024-03-02T03:05:22;3.50;;;3.20;;
46931;SDS011;32670;51.464;11.964;2024-03-02T03:07:47;4.43;;;2.90;;
46931;SDS011;32670;51.464;11.964;2024-03-02T03:10:16;3.57;;;3.27;;
46931;SDS011;32670;51.464;11.964;2024-03-02T03:12:42;3.80;;;3.40;;
46931;SDS011;32670;51.464;11.964;2024-03-02T03:15:08;3.40;;;3.07;;
46931;SDS011;32670;51.464;11.964;2024-03-02T03:17:35;8.57;;;3.30;;
46931;SDS011;32670;51.464;11.964;2024-03-02T03:20:02;4.13;;;2.77;;
46931;SDS011;32670;51.464;11.964;2024-03-02T03:22:29;4.07;;;2.90;;
46931;SDS011;32670;51.464;11.964;2024-03-02T03:24:55;4.70;;;3.13;;
46931;SDS011;32670;51.464;11.964;2024-03-02T03:27:20;3.60;;;2.93;;
46931;SDS011;32670;51.464;11.964;2024-03-02T03:29:46;3.07;;;2.87;;
46931;SDS011;32670;51.464;11.964;2024-03-02T03:32:11;3.23;;;3.00;;
46931;SDS011;32670;51.464;11.964;2024-03-02T03:34:37;3.30;;;3.03;;
46931;SDS011;32670;51.464;11.964;2024-03-02T03:37:02;3.20;;;2.90;;
46931;SDS011;32670;51.464;11.964;2024-03-02T03:39:28;4.13;;;3.10;;
46931;SDS011;32670;51.464;11.964;2024-03-02T03:41:54;3.07;;;2.77;;
46931;SDS011;32670;51.464;11.964;2024-03-02T03:44:20;3.03;;;2.73;;
46931;SDS011;32670;51.464;11.964;2024-03-02T03:46:45;3.20;;;2.90;;
46931;SDS011;32670;51.464;11.964;2024-03-02T03:49:10;3.77;;;2.80;;
46931;SDS011;32670;51.464;11.964;2024-03-02T03:51:36;3.20;;;2.90;;
46931;SDS011;32670;51.464;11.964;2024-03-02T03:54:01;4.07;;;2.90;;
46931;SDS011;32670;51.464;11.964;2024-03-02T03:56:27;3.23;;;2.93;;
46931;SDS011;32670;51.464;11.964;2024-03-02T03:58:52;2.90;;;2.70;;
46931;SDS011;32670;51.464;11.964;2024-03-02T04:01:18;3.10;;;2.80;;
46931;SDS011;32670;51.464;11.964;2024-03-02T04:03:43;3.27;;;2.93;;
46931;SDS011;32670;51.464;11.964;2024-03-02T04:06:09;3.50;;;2.70;;
46931;SDS011;32670;51.464;11.964;2024-03-02T04:08:35;3.57;;;2.80;;
46931;SDS011;32670;51.464;11.964;2024-03-02T04:11:00;3.60;;;2.50;;
46931;SDS011;32670;51.464;11.964;2024-03-02T04:13:27;5.00;;;2.67;;
46931;SDS011;32670;51.464;11.964;2024-03-02T04:15:53;4.10;;;2.90;;
46931;SDS011;32670;51.464;11.964;2024-03-02T04:18:18;3.43;;;2.50;;
46931;SDS011;32670;51.464;11.964;2024-03-02T04:20:44;4.00;;;2.60;;
46931;SDS011;32670;51.464;11.964;2024-03-02T04:23:09;8.07;;;3.93;;
46931;SDS011;32670;51.464;11.964;2024-03-02T04:25:35;3.00;;;2.60;;
46931;SDS011;32670;51.464;11.964;2024-03-02T04:28:01;2.77;;;2.57;;
46931;SDS011;32670;51.464;11.964;2024-03-02T04:30:26;4.00;;;2.70;;
46931;SDS011;32670;51.464;11.964;2024-03-02T04:32:52;3.83;;;2.70;;
46931;SDS011;32670;51.464;11.964;2024-03-02T04:35:17;3.77;;;2.77;;
46931;SDS011;32670;51.464;11.964;2024-03-02T04:37:43;3.20;;;2.87;;
46931;SDS011;32670;51.464;11.964;2024-03-02T04:40:08;5.73;;;2.60;;
46931;SDS011;32670;51.464;11.964;2024-03-02T04:42:35;3.23;;;2.63;;
46931;SDS011;32670;51.464;11.964;2024-03-02T04:45:00;2.70;;;2.50;;
46931;SDS011;32670;51.464;11.964;2024-03-02T04:47:26;3.77;;;2.83;;
46931;SDS011;32670;51.464;11.964;2024-03-02T04:49:51;3.07;;;2.77;;
46931;SDS011;32670;51.464;11.964;2024-03-02T04:52:17;3.20;;;2.90;;
46931;SDS011;32670;51.464;11.964;2024-03-02T04:54:43;3.67;;;2.77;;
46931;SDS011;32670;51.464;11.964;2024-03-02T04:57:41;3.57;;;2.90;;
46931;SDS011;32670;51.464;11.964;2024-03-02T05:00:06;4.00;;;2.50;;
46931;SDS011;32670;51.464;11.964;2024-03-02T05:02:33;5.27;;;3.17;;
46931;SDS011;32670;51.464;11.964;2024-03-02T05:04:59;5.77;;;2.57;;
46931;SDS011;32670;51.464;11.964;2024-03-02T05:07:24;4.77;;;2.97;;
46931;SDS011;32670;51.464;11.964;2024-03-02T05:09:50;3.70;;;2.77;;
46931;SDS011;32670;51.464;11.964;2024-03-02T05:12:15;7.90;;;2.70;;
46931;SDS011;32670;51.464;11.964;2024-03-02T05:14:59;6.73;;;2.83;;
46931;SDS011;32670;51.464;11.964;2024-03-02T05:17:25;4.80;;;2.60;;
46931;SDS011;32670;51.464;11.964;2024-03-02T05:19:51;3.60;;;2.50;;
46931;SDS011;32670;51.464;11.964;2024-03-02T05:22:16;4.00;;;2.77;;
46931;SDS011;32670;51.464;11.964;2024-03-02T05:24:42;3.90;;;2.50;;
46931;SDS011;32670;51.464;11.964;2024-03-02T05:27:07;2.80;;;2.60;;
46931;SDS011;32670;51.464;11.964;2024-03-02T05:29:32;6.53;;;2.93;;
46931;SDS011;32670;51.464;11.964;2024-03-02T05:31:58;4.87;;;2.40;;
46931;SDS011;32670;51.464;11.964;2024-03-02T05:34:23;3.57;;;2.53;;
46931;SDS011;32670;51.464;11.964;2024-03-02T05:36:49;3.87;;;2.43;;
46931;SDS011;32670;51.464;11.964;2024-03-02T05:39:14;2.60;;;2.40;;
46931;SDS011;32670;51.464;11.964;2024-03-02T05:41:40;5.87;;;2.53;;
46931;SDS011;32670;51.464;11.964;2024-03-02T05:44:06;6.30;;;2.23;;
46931;SDS011;32670;51.464;11.964;2024-03-02T05:46:31;4.07;;;2.73;;
46931;SDS011;32670;51.464;11.964;2024-03-02T05:48:57;2.67;;;2.37;;
46931;SDS011;32670;51.464;11.964;2024-03-02T05:51:24;4.97;;;2.80;;
46931;SDS011;32670;51.464;11.964;2024-03-02T05:53:49;3.40;;;3.03;;
46931;SDS011;32670;51.464;11.964;2024-03-02T05:56:14;2.50;;;2.30;;
46931;SDS011;32670;51.464;11.964;2024-03-02T05:58:40;3.43;;;2.30;;
46931;SDS011;32670;51.464;11.964;2024-03-02T06:01:32;2.73;;;2.50;;
46931;SDS011;32670;51.464;11.964;2024-03-02T06:03:58;3.87;;;2.47;;
46931;SDS011;32670;51.464;11.964;2024-03-02T06:06:24;4.53;;;2.57;;
46931;SDS011;32670;51.464;11.964;2024-03-02T06:08:50;3.97;;;2.50;;
46931;SDS011;32670;51.464;11.964;2024-03-02T06:11:16;4.60;;;2.70;;
46931;SDS011;32670;51.464;11.964;2024-03-02T06:13:42;3.93;;;2.60;;
46931;SDS011;32670;51.464;11.964;2024-03-02T06:16:08;3.83;;;2.30;;
46931;SDS011;32670;51.464;11.964;2024-03-02T06:18:33;2.83;;;2.53;;
46931;SDS011;32670;51.464;11.964;2024-03-02T06:20:59;4.13;;;2.50;;
46931;SDS011;32670;51.464;11.964;2024-03-02T06:23:26;3.97;;;2.30;;
46931;SDS011;32670;51.464;11.964;2024-03-02T06:25:52;2.77;;;2.40;;
46931;SDS011;32670;51.464;11.964;2024-03-02T06:28:17;3.43;;;2.77;;
46931;SDS011;32670;51.464;11.964;2024-03-02T06:30:43;5.13;;;2.50;;
46931;SDS011;32670;51.464;11.964;2024-03-02T06:33:09;4.00;;;2.53;;
46931;SDS011;32670;51.464;11.964;2024-03-02T06:35:34;4.10;;;2.77;;
46931;SDS011;32670;51.464;11.964;2024-03-02T06:38:00;3.10;;;2.27;;
46931;SDS011;32670;51.464;11.964;2024-03-02T06:40:26;6.97;;;2.80;;
46931;SDS011;32670;51.464;11.964;2024-03-02T06:42:51;3.00;;;2.30;;
46931;SDS011;32670;51.464;11.964;2024-03-02T06:45:17;2.80;;;2.53;;
46931;SDS011;32670;51.464;11.964;2024-03-02T06:47:42;3.63;;;2.63;;
46931;SDS011;32670;51.464;11.964;2024-03-02T06:50:08;11.17;;;3.37;;
46931;SDS011;32670;51.464;11.964;2024-03-02T06:52:34;6.67;;;2.93;;
46931;SDS011;32670;51.464;11.964;2024-03-02T06:55:00;10.37;;;8.77;;
46931;SDS011;32670;51.464;11.964;2024-03-02T06:57:26;13.20;;;11.80;;
46931;SDS011;32670;51.464;11.964;2024-03-02T06:59:51;14.90;;;13.40;;
46931;SDS011;32670;51.464;11.964;2024-03-02T07:02:19;15.13;;;13.67;;
46931;SDS011;32670;51.464;11.964;2024-03-02T07:04:45;16.17;;;13.10;;
46931;SDS011;32670;51.464;11.964;2024-03-02T07:07:11;15.23;;;13.63;;
46931;SDS011;32670;51.464;11.964;2024-03-02T07:09:37;15.00;;;13.50;;
46931;SDS011;32670;51.464;11.964;2024-03-02T07:12:03;15.67;;;13.87;;
46931;SDS011;32670;51.464;11.964;2024-03-02T07:14:28;15.10;;;13.70;;
46931;SDS011;32670;51.464;11.964;2024-03-02T07:17:13;15.00;;;13.57;;
46931;SDS011;32670;51.464;11.964;2024-03-02T07:19:38;14.20;;;12.87;;
46931;SDS011;32670;51.464;11.964;2024-03-02T07:22:07;13.87;;;12.47;;
46931;SDS011;32670;51.464;11.964;2024-03-02T07:24:38;14.40;;;13.00;;
46931;SDS011;32670;51.464;11.964;2024-03-02T07:27:05;13.53;;;12.23;;
46931;SDS011;32670;51.464;11.964;2024-03-02T07:29:31;15.60;;;13.90;;
46931;SDS011;32670;51.464;11.964;2024-03-02T07:31:58;15.33;;;13.73;;
46931;SDS011;32670;51.464;11.964;2024-03-02T07:34:23;15.00;;;13.50;;
46931;SDS011;32670;51.464;11.964;2024-03-02T07:36:48;15.90;;;14.20;;
46931;SDS011;32670;51.464;11.964;2024-03-02T07:39:14;15.13;;;13.57;;
46931;SDS011;32670;51.464;11.964;2024-03-02T07:41:40;15.57;;;14.07;;
46931;SDS011;32670;51.464;11.964;2024-03-02T07:44:05;16.10;;;14.40;;
46931;SDS011;32670;51.464;11.964;2024-03-02T07:46:31;15.97;;;14.37;;
46931;SDS011;32670;51.464;11.964;2024-03-02T07:48:56;17.77;;;14.70;;
46931;SDS011;32670;51.464;11.964;2024-03-02T07:51:22;15.87;;;14.23;;
46931;SDS011;32670;51.464;11.964;2024-03-02T07:53:47;18.30;;;16.40;;
46931;SDS011;32670;51.464;11.964;2024-03-02T07:56:13;24.33;;;13.97;;
46931;SDS011;32670;51.464;11.964;2024-03-02T07:58:38;29.27;;;12.70;;
46931;SDS011;32670;51.464;11.964;2024-03-02T08:01:04;17.97;;;11.17;;
46931;SDS011;32670;51.464;11.964;2024-03-02T08:03:32;13.20;;;11.00;;
46931;SDS011;32670;51.464;11.964;2024-03-02T08:05:59;10.90;;;9.47;;
46931;SDS011;32670;51.464;11.964;2024-03-02T08:08:25;18.13;;;8.57;;
46931;SDS011;32670;51.464;11.964;2024-03-02T08:10:50;13.87;;;8.67;;
46931;SDS011;32670;51.464;11.964;2024-03-02T08:13:16;11.93;;;8.33;;
46931;SDS011;32670;51.464;11.964;2024-03-02T08:15:41;11.40;;;8.27;;
46931;SDS011;32670;51.464;11.964;2024-03-02T08:18:07;12.30;;;7.63;;
46931;SDS011;32670;51.464;11.964;2024-03-02T08:20:32;9.00;;;7.43;;
46931;SDS011;32670;51.464;11.964;2024-03-02T08:22:58;9.37;;;7.70;;
46931;SDS011;32670;51.464;11.964;2024-03-02T08:25:23;11.50;;;7.30;;
46931;SDS011;32670;51.464;11.964;2024-03-02T08:27:49;10.47;;;7.20;;
46931;SDS011;32670;51.464;11.964;2024-03-02T08:30:14;13.50;;;7.10;;
46931;SDS011;32670;51.464;11.964;2024-03-02T08:32:40;7.30;;;6.60;;
46931;SDS011;32670;51.464;11.964;2024-03-02T08:35:05;8.50;;;7.10;;
46931;SDS011;32670;51.464;11.964;2024-03-02T08:37:31;7.53;;;6.77;;
46931;SDS011;32670;51.464;11.964;2024-03-02T08:39:57;8.17;;;6.40;;
46931;SDS011;32670;51.464;11.964;2024-03-02T08:42:22;7.93;;;6.77;;
46931;SDS011;32670;51.464;11.964;2024-03-02T08:44:48;8.50;;;6.73;;
46931;SDS011;32670;51.464;11.964;2024-03-02T08:47:14;8.67;;;6.73;;
46931;SDS011;32670;51.464;11.964;2024-03-02T08:49:39;7.43;;;6.73;;
46931;SDS011;32670;51.464;11.964;2024-03-02T08:52:05;7.47;;;6.50;;
46931;SDS011;32670;51.464;11.964;2024-03-02T08:54:30;7.80;;;7.00;;
46931;SDS011;32670;51.464;11.964;2024-03-02T08:56:57;8.63;;;7.10;;
46931;SDS011;32670;51.464;11.964;2024-03-02T08:59:22;7.93;;;6.60;;
46931;SDS011;32670;51.464;11.964;2024-03-02T09:01:49;7.23;;;6.53;;
46931;SDS011;32670;51.464;11.964;2024-03-02T09:04:15;7.80;;;7.00;;
46931;SDS011;32670;51.464;11.964;2024-03-02T09:06:42;7.70;;;6.33;;
46931;SDS011;32670;51.464;11.964;2024-03-02T09:09:08;7.10;;;6.33;;
46931;SDS011;32670;51.464;11.964;2024-03-02T09:11:33;7.63;;;6.37;;
46931;SDS011;32670;51.464;11.964;2024-03-02T09:13:59;7.37;;;6.53;;
46931;SDS011;32670;51.464;11.964;2024-03-02T09:16:24;9.87;;;6.77;;
46931;SDS011;32670;51.464;11.964;2024-03-02T09:18:55;7.90;;;6.70;;
46931;SDS011;32670;51.464;11.964;2024-03-02T09:21:21;7.93;;;6.20;;
46931;SDS011;32670;51.464;11.964;2024-03-02T09:23:47;8.37;;;6.27;;
46931;SDS011;32670;51.464;11.964;2024-03-02T09:26:13;6.60;;;5.90;;
46931;SDS011;32670;51.464;11.964;2024-03-02T09:28:42;9.83;;;7.43;;
46931;SDS011;32670;51.464;11.964;2024-03-02T09:31:08;7.87;;;6.83;;
46931;SDS011;32670;51.464;11.964;2024-03-02T09:33:33;8.17;;;7.20;;
46931;SDS011;32670;51.464;11.964;2024-03-02T09:35:59;8.17;;;7.03;;
46931;SDS011;32670;51.464;11.964;2024-03-02T09:38:24;7.83;;;7.03;;
46931;SDS011;32670;51.464;11.964;2024-03-02T09:40:49;10.63;;;6.80;;
46931;SDS011;32670;51.464;11.964;2024-03-02T09:43:15;8.20;;;7.23;;
46931;SDS011;32670;51.464;11.964;2024-03-02T09:45:41;9.33;;;6.90;;
46931;SDS011;32670;51.464;11.964;2024-03-02T09:48:06;7.63;;;6.50;;
46931;SDS011;32670;51.464;11.964;2024-03-02T09:50:32;9.63;;;6.70;;
46931;SDS011;32670;51.464;11.964;2024-03-02T09:52:58;7.67;;;6.30;;
46931;SDS011;32670;51.464;11.964;2024-03-02T09:55:24;7.03;;;6.33;;
46931;SDS011;32670;51.464;11.964;2024-03-02T09:57:50;6.23;;;5.60;;
46931;SDS011;32670;51.464;11.964;2024-03-02T10:00:16;8.43;;;6.97;;
46931;SDS011;32670;51.464;11.964;2024-03-02T10:02:42;7.47;;;6.27;;
46931;SDS011;32670;51.464;11.964;2024-03-02T10:05:11;6.10;;;5.53;;
46931;SDS011;32670;51.464;11.964;2024-03-02T10:07:39;6.67;;;6.07;;
46931;SDS011;32670;51.464;11.964;2024-03-02T10:10:12;6.20;;;5.60;;
46931;SDS011;32670;51.464;11.964;2024-03-02T10:12:39;7.80;;;5.50;;
46931;SDS011;32670;51.464;11.964;2024-03-02T10:15:04;6.70;;;5.80;;
46931;SDS011;32670;51.464;11.964;2024-03-02T10:17:31;6.23;;;5.60;;
46931;SDS011;32670;51.464;11.964;2024-03-02T10:19:56;7.00;;;6.27;;
46931;SDS011;32670;51.464;11.964;2024-03-02T10:22:22;6.17;;;5.57;;
46931;SDS011;32670;51.464;11.964;2024-03-02T10:24:48;6.43;;;5.80;;
46931;SDS011;32670;51.464;11.964;2024-03-02T10:27:18;6.73;;;6.10;;
46931;SDS011;32670;51.464;11.964;2024-03-02T10:29:48;7.07;;;6.03;;
46931;SDS011;32670;51.464;11.964;2024-03-02T10:32:15;8.20;;;5.50;;
46931;SDS011;32670;51.464;11.964;2024-03-02T10:34:41;8.77;;;5.60;;
46931;SDS011;32670;51.464;11.964;2024-03-02T10:37:07;6.10;;;5.47;;
46931;SDS011;32670;51.464;11.964;2024-03-02T10:39:35;8.73;;;5.70;;
46931;SDS011;32670;51.464;11.964;2024-03-02T10:42:01;6.30;;;5.70;;
46931;SDS011;32670;51.464;11.964;2024-03-02T10:44:28;7.33;;;6.30;;
46931;SDS011;32670;51.464;11.964;2024-03-02T10:46:55;6.80;;;5.70;;
46931;SDS011;32670;51.464;11.964;2024-03-02T10:49:21;7.67;;;6.00;;
46931;SDS011;32670;51.464;11.964;2024-03-02T10:51:49;6.30;;;5.80;;
46931;SDS011;32670;51.464;11.964;2024-03-02T10:54:14;6.37;;;5.80;;
46931;SDS011;32670;51.464;11.964;2024-03-02T10:56:40;6.80;;;6.10;;
46931;SDS011;32670;51.464;11.964;2024-03-02T11:01:56;7.00;;;5.80;;
46931;SDS011;32670;51.464;11.964;2024-03-02T11:04:24;6.43;;;5.53;;
46931;SDS011;32670;51.464;11.964;2024-03-02T11:06:51;6.20;;;5.60;;
46931;SDS011;32670;51.464;11.964;2024-03-02T11:09:22;7.73;;;5.77;;
46931;SDS011;32670;51.464;11.964;2024-03-02T11:11:54;6.57;;;5.97;;
46931;SDS011;32670;51.464;11.964;2024-03-02T11:14:27;7.17;;;5.57;;
46931;SDS011;32670;51.464;11.964;2024-03-02T11:16:56;7.00;;;5.77;;
46931;SDS011;32670;51.464;11.964;2024-03-02T11:19:23;6.23;;;5.63;;
46931;SDS011;32670;51.464;11.964;2024-03-02T11:21:49;8.23;;;5.60;;
46931;SDS011;32670;51.464;11.964;2024-03-02T11:26:48;5.97;;;5.37;;
46931;SDS011;32670;51.464;11.964;2024-03-02T11:32:00;5.70;;;5.20;;
46931;SDS011;32670;51.464;11.964;2024-03-02T11:34:30;6.03;;;5.47;;
46931;SDS011;32670;51.464;11.964;2024-03-02T11:36:58;6.97;;;6.17;;
46931;SDS011;32670;51.464;11.964;2024-03-02T11:39:24;5.10;;;4.60;;
46931;SDS011;32670;51.464;11.964;2024-03-02T11:41:50;5.80;;;5.30;;
46931;SDS011;32670;51.464;11.964;2024-03-02T11:44:16;5.70;;;5.13;;
46931;SDS011;32670;51.464;11.964;2024-03-02T11:46:42;5.23;;;4.80;;
46931;SDS011;32670;51.464;11.964;2024-03-02T11:49:13;5.80;;;5.00;;
46931;SDS011;32670;51.464;11.964;2024-03-02T11:51:39;5.70;;;5.10;;
46931;SDS011;32670;51.464;11.964;2024-03-02T11:54:25;5.47;;;4.97;;
46931;SDS011;32670;51.464;11.964;2024-03-02T11:56:52;5.50;;;4.90;;
46931;SDS011;32670;51.464;11.964;2024-03-02T11:59:19;6.10;;;5.10;;
46931;SDS011;32670;51.464;11.964;2024-03-02T12:01:45;5.40;;;4.60;;
46931;SDS011;32670;51.464;11.964;2024-03-02T12:04:12;6.33;;;5.73;;
46931;SDS011;32670;51.464;11.964;2024-03-02T12:06:38;6.20;;;4.93;;
46931;SDS011;32670;51.464;11.964;2024-03-02T12:09:03;5.17;;;4.67;;
46931;SDS011;32670;51.464;11.964;2024-03-02T12:11:30;5.73;;;4.57;;
46931;SDS011;32670;51.464;11.964;2024-03-02T12:13:55;5.00;;;4.53;;
46931;SDS011;32670;51.464;11.964;2024-03-02T12:16:25;4.90;;;4.47;;
46931;SDS011;32670;51.464;11.964;2024-03-02T12:18:50;4.60;;;4.20;;
46931;SDS011;32670;51.464;11.964;2024-03-02T12:21:16;4.50;;;4.10;;
46931;SDS011;32670;51.464;11.964;2024-03-02T12:23:41;4.70;;;4.30;;
46931;SDS011;32670;51.464;11.964;2024-03-02T12:26:07;4.30;;;3.90;;
46931;SDS011;32670;51.464;11.964;2024-03-02T12:28:33;4.83;;;4.30;;
46931;SDS011;32670;51.464;11.964;2024-03-02T12:30:59;4.90;;;4.50;;
46931;SDS011;32670;51.464;11.964;2024-03-02T12:33:25;4.70;;;4.30;;
46931;SDS011;32670;51.464;11.964;2024-03-02T12:35:52;5.10;;;3.93;;
46931;SDS011;32670;51.464;11.964;2024-03-02T12:38:17;4.10;;;3.80;;
46931;SDS011;32670;51.464;11.964;2024-03-02T12:40:44;4.37;;;3.97;;
46931;SDS011;32670;51.464;11.964;2024-03-02T12:43:09;4.53;;;4.07;;
46931;SDS011;32670;51.464;11.964;2024-03-02T12:45:35;4.27;;;3.90;;
46931;SDS011;32670;51.464;11.964;2024-03-02T12:48:01;4.00;;;3.70;;
46931;SDS011;32670;51.464;11.964;2024-03-02T12:50:29;3.97;;;3.67;;
46931;SDS011;32670;51.464;11.964;2024-03-02T12:52:55;4.37;;;3.83;;
46931;SDS011;32670;51.464;11.964;2024-03-02T12:55:21;3.50;;;3.20;;
46931;SDS011;32670;51.464;11.964;2024-03-02T12:57:47;4.03;;;3.43;;
46931;SDS011;32670;51.464;11.964;2024-03-02T13:00:18;4.43;;;4.03;;
46931;SDS011;32670;51.464;11.964;2024-03-02T13:02:45;4.37;;;4.00;;
46931;SDS011;32670;51.464;11.964;2024-03-02T13:05:11;3.97;;;3.67;;
46931;SDS011;32670;51.464;11.964;2024-03-02T13:07:37;3.90;;;3.60;;
46931;SDS011;32670;51.464;11.964;2024-03-02T13:10:03;3.70;;;3.40;;
46931;SDS011;32670;51.464;11.964;2024-03-02T13:12:29;4.37;;;3.97;;
46931;SDS011;32670;51.464;11.964;2024-03-02T13:14:55;3.90;;;3.53;;
46931;SDS011;32670;51.464;11.964;2024-03-02T13:17:23;4.47;;;4.07;;
46931;SDS011;32670;51.464;11.964;2024-03-02T13:19:55;3.47;;;3.17;;
46931;SDS011;32670;51.464;11.964;2024-03-02T13:22:24;4.37;;;3.63;;
46931;SDS011;32670;51.464;11.964;2024-03-02T13:24:50;4.00;;;3.70;;
46931;SDS011;32670;51.464;11.964;2024-03-02T13:27:17;3.77;;;3.47;;
46931;SDS011;32670;51.464;11.964;2024-03-02T13:29:45;3.80;;;3.50;;
46931;SDS011;32670;51.464;11.964;2024-03-02T13:32:11;3.87;;;3.57;;
46931;SDS011;32670;51.464;11.964;2024-03-02T13:34:37;3.83;;;3.43;;
46931;SDS011;32670;51.464;11.964;2024-03-02T13:37:03;3.50;;;3.20;;
46931;SDS011;32670;51.464;11.964;2024-03-02T13:39:30;3.47;;;3.17;;
46931;SDS011;32670;51.464;11.964;2024-03-02T13:41:57;3.70;;;3.10;;
46931;SDS011;32670;51.464;11.964;2024-03-02T13:44:28;3.40;;;3.10;;
46931;SDS011;32670;51.464;11.964;2024-03-02T13:46:54;3.30;;;3.00;;
46931;SDS011;32670;51.464;11.964;2024-03-02T13:49:20;3.00;;;2.80;;
46931;SDS011;32670;51.464;11.964;2024-03-02T13:51:45;3.37;;;3.07;;
46931;SDS011;32670;51.464;11.964;2024-03-02T13:54:11;3.10;;;2.90;;
46931;SDS011;32670;51.464;11.964;2024-03-02T13:56:36;3.97;;;3.20;;
46931;SDS011;32670;51.464;11.964;2024-03-02T13:59:04;3.33;;;2.67;;
46931;SDS011;32670;51.464;11.964;2024-03-02T14:01:31;3.77;;;3.13;;
46931;SDS011;32670;51.464;11.964;2024-03-02T14:03:57;4.53;;;3.10;;
46931;SDS011;32670;51.464;11.964;2024-03-02T14:06:23;3.17;;;2.87;;
46931;SDS011;32670;51.464;11.964;2024-03-02T14:08:48;3.07;;;2.80;;
46931;SDS011;32670;51.464;11.964;2024-03-02T14:11:14;3.27;;;2.97;;
46931;SDS011;32670;51.464;11.964;2024-03-02T14:13:41;3.10;;;2.80;;
46931;SDS011;32670;51.464;11.964;2024-03-02T14:16:06;3.63;;;3.00;;
46931;SDS011;32670;51.464;11.964;2024-03-02T14:18:32;3.30;;;3.00;;
46931;SDS011;32670;51.464;11.964;2024-03-02T14:20:57;4.20;;;2.80;;
46931;SDS011;32670;51.464;11.964;2024-03-02T14:23:23;4.43;;;2.60;;
46931;SDS011;32670;51.464;11.964;2024-03-02T14:25:50;3.03;;;2.83;;
46931;SDS011;32670;51.464;11.964;2024-03-02T14:28:16;3.13;;;2.63;;
46931;SDS011;32670;51.464;11.964;2024-03-02T14:30:41;2.60;;;2.40;;
46931;SDS011;32670;51.464;11.964;2024-03-02T14:33:07;3.20;;;3.00;;
46931;SDS011;32670;51.464;11.964;2024-03-02T14:35:32;2.90;;;2.70;;
46931;SDS011;32670;51.464;11.964;2024-03-02T14:37:58;2.93;;;2.63;;